Time,TemperatureF,DewpointF,PressureIn,WindDirection,WindDirectionDegrees,WindSpeedMPH,WindSpeedGustMPH,Humidity,HourlyPrecipIn,Conditions,Clouds,dailyrainin,SoftwareType,DateUTC
2013-07-14 00:02:00,79.0,73.0,-100.00,North,0,10.0,-999.0,82,-99.99,,,-99.99,,2013-07-14 05:02:00,
2013-07-14 00:23:00,78.0,73.0,-100.00,North,0,14.0,-999.0,84,-99.99,,,-99.99,,2013-07-14 05:23:00,
2013-07-14 00:32:00,78.0,73.0,-100.00,North,0,11.0,-999.0,86,-99.99,,,-99.99,,2013-07-14 05:32:00,
2013-07-14 00:43:00,78.0,73.0,-100.00,North,0,11.0,-999.0,86,-99.99,,,-99.99,,2013-07-14 05:43:00,
2013-07-14 00:53:00,78.0,73.0,-100.00,North,0,7.0,-999.0,86,-99.99,,,-99.99,,2013-07-14 05:53:00,
2013-07-14 01:01:00,77.0,73.0,-100.00,North,0,5.0,-999.0,87,-99.99,,,-99.99,,2013-07-14 06:01:00,
2013-07-14 01:11:00,77.0,73.0,-100.00,North,0,5.0,-999.0,87,-99.99,,,-99.99,,2013-07-14 06:11:00,
2013-07-14 01:22:00,78.0,72.0,-100.00,North,0,8.0,-999.0,82,-99.99,,,-99.99,,2013-07-14 06:22:00,
2013-07-14 01:32:00,77.0,73.0,-100.00,North,0,7.0,-999.0,85,-99.99,,,-99.99,,2013-07-14 06:32:00,
2013-07-14 01:42:00,77.0,73.0,-100.00,North,0,7.0,-999.0,85,-99.99,,,-99.99,,2013-07-14 06:42:00,
2013-07-14 01:53:00,77.0,73.0,-100.00,North,0,8.0,-999.0,86,-99.99,,,-99.99,,2013-07-14 06:53:00,
2013-07-14 02:02:00,77.0,72.0,-100.00,North,0,7.0,-999.0,84,-99.99,,,-99.99,,2013-07-14 07:02:00,
2013-07-14 02:12:00,77.0,72.0,-100.00,North,0,7.0,-999.0,84,-99.99,,,-99.99,,2013-07-14 07:12:00,
2013-07-14 02:22:00,77.0,72.0,-100.00,North,0,8.0,-999.0,83,-99.99,,,-99.99,,2013-07-14 07:22:00,
2013-07-14 02:33:00,77.0,70.0,-100.00,North,0,9.0,-999.0,80,-99.99,,,-99.99,,2013-07-14 07:33:00,
2013-07-14 02:43:00,77.0,70.0,-100.00,North,0,9.0,-999.0,80,-99.99,,,-99.99,,2013-07-14 07:43:00,
2013-07-14 02:53:00,77.0,70.0,-100.00,North,0,10.0,-999.0,80,-99.99,,,-99.99,,2013-07-14 07:53:00,
2013-07-14 03:01:00,76.0,70.0,-100.00,North,0,9.0,-999.0,80,-99.99,,,-99.99,,2013-07-14 08:01:00,
2013-07-14 03:11:00,76.0,70.0,-100.00,North,0,9.0,-999.0,80,-99.99,,,-99.99,,2013-07-14 08:11:00,
2013-07-14 03:22:00,76.0,70.0,-100.00,North,0,8.0,-999.0,81,-99.99,,,-99.99,,2013-07-14 08:22:00,
2013-07-14 03:32:00,76.0,70.0,-100.00,North,0,7.0,-999.0,83,-99.99,,,-99.99,,2013-07-14 08:32:00,
2013-07-14 03:42:00,76.0,70.0,-100.00,North,0,7.0,-999.0,83,-99.99,,,-99.99,,2013-07-14 08:42:00,
2013-07-14 03:53:00,75.0,70.0,-100.00,North,0,7.0,-999.0,84,-99.99,,,-99.99,,2013-07-14 08:53:00,
2013-07-14 04:01:00,74.0,70.0,-100.00,North,0,10.0,-999.0,85,-99.99,,,-99.99,,2013-07-14 09:01:00,
2013-07-14 04:11:00,74.0,70.0,-100.00,North,0,10.0,-999.0,85,-99.99,,,-99.99,,2013-07-14 09:11:00,
2013-07-14 04:22:00,75.0,70.0,-100.00,North,0,11.0,-999.0,83,-99.99,,,-99.99,,2013-07-14 09:22:00,
2013-07-14 04:32:00,75.0,70.0,-100.00,North,0,9.0,-999.0,82,-99.99,,,-99.99,,2013-07-14 09:32:00,
2013-07-14 04:42:00,75.0,70.0,-100.00,North,0,9.0,-999.0,82,-99.99,,,-99.99,,2013-07-14 09:42:00,
2013-07-14 04:52:00,75.0,70.0,-100.00,North,0,11.0,-999.0,82,-99.99,,,-99.99,,2013-07-14 09:52:00,
2013-07-14 05:01:00,75.0,70.0,-100.00,North,0,8.0,-999.0,86,-99.99,,,-99.99,,2013-07-14 10:01:00,
2013-07-14 05:11:00,75.0,70.0,-100.00,North,0,8.0,-999.0,86,-99.99,,,-99.99,,2013-07-14 10:11:00,
2013-07-14 05:22:00,74.0,70.0,-100.00,North,0,8.0,-999.0,88,-99.99,,,-99.99,,2013-07-14 10:22:00,
2013-07-14 05:32:00,74.0,70.0,-100.00,North,0,9.0,-999.0,88,-99.99,,,-99.99,,2013-07-14 10:32:00,
2013-07-14 05:42:00,74.0,70.0,-100.00,North,0,9.0,-999.0,88,-99.99,,,-99.99,,2013-07-14 10:42:00,
2013-07-14 05:53:00,74.0,69.0,-100.00,North,0,12.0,-999.0,83,-99.99,,,-99.99,,2013-07-14 10:53:00,
2013-07-14 06:02:00,74.0,68.0,-100.00,North,0,11.0,-999.0,80,-99.99,,,-99.99,,2013-07-14 11:02:00,
2013-07-14 06:11:00,74.0,68.0,-100.00,North,0,11.0,-999.0,80,-99.99,,,-99.99,,2013-07-14 11:11:00,
2013-07-14 06:22:00,74.0,68.0,-100.00,North,0,12.0,-999.0,83,-99.99,,,-99.99,,2013-07-14 11:22:00,
2013-07-14 06:32:00,74.0,68.0,-100.00,North,0,10.0,-999.0,83,-99.99,,,-99.99,,2013-07-14 11:32:00,
2013-07-14 06:43:00,74.0,68.0,-100.00,North,0,10.0,-999.0,83,-99.99,,,-99.99,,2013-07-14 11:43:00,
2013-07-14 06:53:00,74.0,68.0,-100.00,North,0,9.0,-999.0,84,-99.99,,,-99.99,,2013-07-14 11:53:00,
2013-07-14 07:02:00,73.0,69.0,-100.00,North,0,8.0,-999.0,86,-99.99,,,-99.99,,2013-07-14 12:02:00,
2013-07-14 07:11:00,73.0,69.0,-100.00,North,0,8.0,-999.0,86,-99.99,,,-99.99,,2013-07-14 12:11:00,
2013-07-14 07:22:00,74.0,69.0,-100.00,North,0,6.0,-999.0,85,-99.99,,,-99.99,,2013-07-14 12:22:00,
2013-07-14 07:33:00,75.0,70.0,-100.00,North,0,7.0,-999.0,83,-99.99,,,-99.99,,2013-07-14 12:33:00,
2013-07-14 07:43:00,75.0,70.0,-100.00,North,0,7.0,-999.0,83,-99.99,,,-99.99,,2013-07-14 12:43:00,
2013-07-14 07:52:00,76.0,70.0,-100.00,North,0,7.0,-999.0,81,-99.99,,,-99.99,,2013-07-14 12:52:00,
2013-07-14 09:11:00,79.0,71.0,-100.00,North,0,9.0,-999.0,75,-99.99,,,-99.99,,2013-07-14 14:11:00,
2013-07-14 09:23:00,79.0,69.0,-100.00,North,0,13.0,-999.0,72,-99.99,,,-99.99,,2013-07-14 14:23:00,
2013-07-14 09:43:00,81.0,70.0,-100.00,North,0,10.0,-999.0,69,-99.99,,,-99.99,,2013-07-14 14:43:00,
2013-07-14 10:12:00,82.0,71.0,-100.00,North,0,11.0,-999.0,68,-99.99,,,-99.99,,2013-07-14 15:12:00,
2013-07-14 10:22:00,81.0,69.0,-100.00,North,0,12.0,-999.0,66,-99.99,,,-99.99,,2013-07-14 15:22:00,
2013-07-14 10:32:00,83.0,69.0,-100.00,North,0,15.0,-999.0,62,-99.99,,,-99.99,,2013-07-14 15:32:00,
2013-07-14 10:42:00,83.0,69.0,-100.00,North,0,15.0,-999.0,62,-99.99,,,-99.99,,2013-07-14 15:42:00,
2013-07-14 11:01:00,84.0,68.0,-100.00,North,0,14.0,-999.0,58,-99.99,,,-99.99,,2013-07-14 16:01:00,
2013-07-14 11:11:00,84.0,68.0,-100.00,North,0,14.0,-999.0,58,-99.99,,,-99.99,,2013-07-14 16:11:00,
2013-07-14 11:32:00,86.0,67.0,-100.00,North,0,13.0,-999.0,54,-99.99,,,-99.99,,2013-07-14 16:32:00,
2013-07-14 11:43:00,86.0,67.0,-100.00,North,0,13.0,-999.0,54,-99.99,,,-99.99,,2013-07-14 16:43:00,
2013-07-14 11:53:00,87.0,70.0,-100.00,North,0,13.0,-999.0,56,-99.99,,,-99.99,,2013-07-14 16:53:00,
2013-07-14 12:02:00,87.0,67.0,-100.00,North,0,15.0,-999.0,51,-99.99,,,-99.99,,2013-07-14 17:02:00,
2013-07-14 12:11:00,87.0,67.0,-100.00,North,0,15.0,-999.0,51,-99.99,,,-99.99,,2013-07-14 17:11:00,
2013-07-14 12:22:00,87.0,66.0,-100.00,North,0,16.0,-999.0,49,-99.99,,,-99.99,,2013-07-14 17:22:00,
2013-07-14 12:32:00,88.0,67.0,-100.00,North,0,12.0,-999.0,49,-99.99,,,-99.99,,2013-07-14 17:32:00,
2013-07-14 12:43:00,88.0,67.0,-100.00,North,0,12.0,-999.0,49,-99.99,,,-99.99,,2013-07-14 17:43:00,
2013-07-14 12:53:00,89.0,67.0,-100.00,North,0,16.0,-999.0,49,-99.99,,,-99.99,,2013-07-14 17:53:00,
2013-07-14 13:01:00,90.0,68.0,-100.00,North,0,13.0,-999.0,49,-99.99,,,-99.99,,2013-07-14 18:01:00,
2013-07-14 13:11:00,90.0,68.0,-100.00,North,0,13.0,-999.0,49,-99.99,,,-99.99,,2013-07-14 18:11:00,
2013-07-14 13:22:00,89.0,69.0,-100.00,North,0,12.0,-999.0,52,-99.99,,,-99.99,,2013-07-14 18:22:00,
2013-07-14 13:32:00,89.0,68.0,-100.00,North,0,17.0,-999.0,51,-99.99,,,-99.99,,2013-07-14 18:32:00,
2013-07-14 13:42:00,89.0,68.0,-100.00,North,0,17.0,-999.0,51,-99.99,,,-99.99,,2013-07-14 18:42:00,
2013-07-14 13:52:00,89.0,67.0,-100.00,North,0,15.0,-999.0,49,-99.99,,,-99.99,,2013-07-14 18:52:00,
2013-07-14 14:01:00,89.0,66.0,-100.00,North,0,15.0,-999.0,47,-99.99,,,-99.99,,2013-07-14 19:01:00,
2013-07-14 14:11:00,89.0,66.0,-100.00,North,0,15.0,-999.0,47,-99.99,,,-99.99,,2013-07-14 19:11:00,
2013-07-14 14:22:00,89.0,67.0,-100.00,North,0,14.0,-999.0,48,-99.99,,,-99.99,,2013-07-14 19:22:00,
2013-07-14 14:32:00,89.0,67.0,-100.00,North,0,12.0,-999.0,49,-99.99,,,-99.99,,2013-07-14 19:32:00,
2013-07-14 14:43:00,89.0,67.0,-100.00,North,0,12.0,-999.0,49,-99.99,,,-99.99,,2013-07-14 19:43:00,
2013-07-14 14:52:00,89.0,66.0,-100.00,North,0,11.0,-999.0,47,-99.99,,,-99.99,,2013-07-14 19:52:00,
2013-07-14 15:01:00,91.0,66.0,-100.00,North,0,13.0,-999.0,44,-99.99,,,-99.99,,2013-07-14 20:01:00,
2013-07-14 15:11:00,91.0,66.0,-100.00,North,0,13.0,-999.0,44,-99.99,,,-99.99,,2013-07-14 20:11:00,
2013-07-14 15:22:00,90.0,66.0,-100.00,North,0,9.0,-999.0,44,-99.99,,,-99.99,,2013-07-14 20:22:00,
2013-07-14 15:32:00,90.0,66.0,-100.00,North,0,16.0,-999.0,44,-99.99,,,-99.99,,2013-07-14 20:32:00,
2013-07-14 15:43:00,90.0,66.0,-100.00,North,0,16.0,-999.0,44,-99.99,,,-99.99,,2013-07-14 20:43:00,
2013-07-14 15:53:00,91.0,67.0,-100.00,North,0,12.0,-999.0,45,-99.99,,,-99.99,,2013-07-14 20:53:00,
2013-07-14 16:01:00,90.0,67.0,-100.00,North,0,12.0,-999.0,47,-99.99,,,-99.99,,2013-07-14 21:01:00,
2013-07-14 16:11:00,90.0,67.0,-100.00,North,0,12.0,-999.0,47,-99.99,,,-99.99,,2013-07-14 21:11:00,
2013-07-14 16:22:00,90.0,67.0,-100.00,North,0,13.0,-999.0,46,-99.99,,,-99.99,,2013-07-14 21:22:00,
2013-07-14 16:32:00,91.0,68.0,-100.00,North,0,9.0,-999.0,46,-99.99,,,-99.99,,2013-07-14 21:32:00,
2013-07-14 16:43:00,91.0,68.0,-100.00,North,0,9.0,-999.0,46,-99.99,,,-99.99,,2013-07-14 21:43:00,
2013-07-14 16:52:00,90.0,65.0,-100.00,North,0,14.0,-999.0,44,-99.99,,,-99.99,,2013-07-14 21:52:00,
2013-07-14 17:01:00,90.0,66.0,-100.00,North,0,11.0,-999.0,45,-99.99,,,-99.99,,2013-07-14 22:01:00,
2013-07-14 17:11:00,90.0,66.0,-100.00,North,0,11.0,-999.0,45,-99.99,,,-99.99,,2013-07-14 22:11:00,
2013-07-14 17:22:00,90.0,67.0,-100.00,North,0,8.0,-999.0,46,-99.99,,,-99.99,,2013-07-14 22:22:00,
2013-07-14 17:32:00,90.0,67.0,-100.00,North,0,9.0,-999.0,46,-99.99,,,-99.99,,2013-07-14 22:32:00,
2013-07-14 17:42:00,90.0,67.0,-100.00,North,0,9.0,-999.0,46,-99.99,,,-99.99,,2013-07-14 22:42:00,
2013-07-14 17:53:00,90.0,66.0,-100.00,North,0,11.0,-999.0,45,-99.99,,,-99.99,,2013-07-14 22:53:00,
2013-07-14 18:01:00,90.0,66.0,-100.00,North,0,8.0,-999.0,45,-99.99,,,-99.99,,2013-07-14 23:01:00,
2013-07-14 18:11:00,90.0,66.0,-100.00,North,0,8.0,-999.0,45,-99.99,,,-99.99,,2013-07-14 23:11:00,
2013-07-14 18:22:00,90.0,66.0,-100.00,North,0,9.0,-999.0,46,-99.99,,,-99.99,,2013-07-14 23:22:00,
2013-07-14 18:32:00,90.0,66.0,-100.00,North,0,9.0,-999.0,45,-99.99,,,-99.99,,2013-07-14 23:32:00,
2013-07-14 18:42:00,90.0,66.0,-100.00,North,0,9.0,-999.0,45,-99.99,,,-99.99,,2013-07-14 23:42:00,
2013-07-14 18:53:00,89.0,65.0,-100.00,North,0,10.0,-999.0,45,-99.99,,,-99.99,,2013-07-14 23:53:00,
2013-07-14 19:02:00,89.0,66.0,-100.00,North,0,10.0,-999.0,46,-99.99,,,-99.99,,2013-07-15 00:02:00,
2013-07-14 19:11:00,89.0,66.0,-100.00,North,0,10.0,-999.0,46,-99.99,,,-99.99,,2013-07-15 00:11:00,
2013-07-14 19:22:00,88.0,66.0,-100.00,North,0,10.0,-999.0,48,-99.99,,,-99.99,,2013-07-15 00:22:00,
2013-07-14 19:32:00,88.0,67.0,-100.00,North,0,10.0,-999.0,49,-99.99,,,-99.99,,2013-07-15 00:32:00,
2013-07-14 19:43:00,88.0,67.0,-100.00,North,0,10.0,-999.0,49,-99.99,,,-99.99,,2013-07-15 00:43:00,
2013-07-14 19:53:00,87.0,68.0,-100.00,North,0,7.0,-999.0,53,-99.99,,,-99.99,,2013-07-15 00:53:00,
2013-07-14 20:01:00,87.0,69.0,-100.00,North,0,4.0,-999.0,56,-99.99,,,-99.99,,2013-07-15 01:01:00,
2013-07-14 20:11:00,87.0,69.0,-100.00,North,0,4.0,-999.0,56,-99.99,,,-99.99,,2013-07-15 01:11:00,
2013-07-14 20:22:00,85.0,71.0,-100.00,North,0,4.0,-999.0,61,-99.99,,,-99.99,,2013-07-15 01:22:00,
2013-07-14 20:32:00,85.0,71.0,-100.00,North,0,4.0,-999.0,63,-99.99,,,-99.99,,2013-07-15 01:32:00,
2013-07-14 20:43:00,85.0,71.0,-100.00,North,0,4.0,-999.0,63,-99.99,,,-99.99,,2013-07-15 01:43:00,
2013-07-14 20:53:00,84.0,72.0,-100.00,North,0,4.0,-999.0,67,-99.99,,,-99.99,,2013-07-15 01:53:00,
2013-07-14 21:02:00,83.0,72.0,-100.00,North,0,3.0,-999.0,69,-99.99,,,-99.99,,2013-07-15 02:02:00,
2013-07-14 21:11:00,83.0,72.0,-100.00,North,0,3.0,-999.0,69,-99.99,,,-99.99,,2013-07-15 02:11:00,
2013-07-14 21:22:00,82.0,69.0,-100.00,North,0,6.0,-999.0,64,-99.99,,,-99.99,,2013-07-15 02:22:00,
2013-07-14 21:32:00,81.0,69.0,-100.00,North,0,7.0,-999.0,67,-99.99,,,-99.99,,2013-07-15 02:32:00,
2013-07-14 21:42:00,81.0,69.0,-100.00,North,0,7.0,-999.0,67,-99.99,,,-99.99,,2013-07-15 02:42:00,
2013-07-14 21:53:00,80.0,68.0,-100.00,North,0,6.0,-999.0,67,-99.99,,,-99.99,,2013-07-15 02:53:00,
2013-07-14 22:02:00,80.0,69.0,-100.00,North,0,7.0,-999.0,69,-99.99,,,-99.99,,2013-07-15 03:02:00,
2013-07-14 22:11:00,80.0,69.0,-100.00,North,0,7.0,-999.0,69,-99.99,,,-99.99,,2013-07-15 03:11:00,
2013-07-14 22:22:00,80.0,69.0,-100.00,North,0,8.0,-999.0,69,-99.99,,,-99.99,,2013-07-15 03:22:00,
2013-07-14 22:32:00,79.0,68.0,-100.00,North,0,7.0,-999.0,69,-99.99,,,-99.99,,2013-07-15 03:32:00,
2013-07-14 22:43:00,79.0,68.0,-100.00,North,0,7.0,-999.0,69,-99.99,,,-99.99,,2013-07-15 03:43:00,
2013-07-14 22:53:00,80.0,68.0,-100.00,North,0,7.0,-999.0,67,-99.99,,,-99.99,,2013-07-15 03:53:00,
2013-07-14 23:01:00,79.0,68.0,-100.00,North,0,8.0,-999.0,68,-99.99,,,-99.99,,2013-07-15 04:01:00,
2013-07-14 23:11:00,79.0,68.0,-100.00,North,0,8.0,-999.0,68,-99.99,,,-99.99,,2013-07-15 04:11:00,
2013-07-14 23:22:00,77.0,69.0,-100.00,North,0,8.0,-999.0,76,-99.99,,,-99.99,,2013-07-15 04:22:00,
2013-07-14 23:32:00,77.0,70.0,-100.00,North,0,7.0,-999.0,77,-99.99,,,-99.99,,2013-07-15 04:32:00,
2013-07-14 23:42:00,77.0,70.0,-100.00,North,0,7.0,-999.0,77,-99.99,,,-99.99,,2013-07-15 04:42:00,
2013-07-14 23:53:00,77.0,69.0,-100.00,North,0,7.0,-999.0,77,-99.99,,,-99.99,,2013-07-15 04:53:00,